sensor_id;sensor_type;location;lat;lon;timestamp;P1;durP1;ratioP1;P2;durP2;ratioP2
1987;SDS011;12775;46.994;15.498;2022-09-09T00:01:20;1.18;;;1.08;;
1987;SDS011;12775;46.994;15.498;2022-09-09T00:04:33;1.42;;;1.22;;
1987;SDS011;12775;46.994;15.498;2022-09-09T00:06:45;1.62;;;1.16;;
1987;SDS011;12775;46.994;15.498;2022-09-09T00:09:13;0.94;;;0.84;;
1987;SDS011;12775;46.994;15.498;2022-09-09T00:11:41;2.20;;;0.92;;
1987;SDS011;12775;46.994;15.498;2022-09-09T00:14:11;1.02;;;0.90;;
1987;SDS011;12775;46.994;15.498;2022-09-09T00:16:36;2.02;;;1.30;;
1987;SDS011;12775;46.994;15.498;2022-09-09T00:19:07;4.32;;;0.96;;
1987;SDS011;12775;46.994;15.498;2022-09-09T00:21:37;1.26;;;0.82;;
1987;SDS011;12775;46.994;15.498;2022-09-09T00:24:22;2.48;;;1.00;;
1987;SDS011;12775;46.994;15.498;2022-09-09T00:26:38;2.40;;;1.12;;
1987;SDS011;12775;46.994;15.498;2022-09-09T00:29:17;2.40;;;1.00;;
1987;SDS011;12775;46.994;15.498;2022-09-09T00:31:46;1.20;;;1.00;;
1987;SDS011;12775;46.994;15.498;2022-09-09T00:34:18;2.50;;;1.00;;
1987;SDS011;12775;46.994;15.498;2022-09-09T00:36:42;2.28;;;1.06;;
1987;SDS011;12775;46.994;15.498;2022-09-09T00:39:14;1.06;;;0.80;;
1987;SDS011;12775;46.994;15.498;2022-09-09T00:41:44;0.88;;;0.78;;
1987;SDS011;12775;46.994;15.498;2022-09-09T00:47:03;1.70;;;1.02;;
1987;SDS011;12775;46.994;15.498;2022-09-09T00:49:36;1.26;;;0.86;;
1987;SDS011;12775;46.994;15.498;2022-09-09T00:52:14;1.68;;;1.28;;
1987;SDS011;12775;46.994;15.498;2022-09-09T00:55:13;3.56;;;1.02;;
1987;SDS011;12775;46.994;15.498;2022-09-09T00:57:37;2.48;;;0.88;;
1987;SDS011;12775;46.994;15.498;2022-09-09T01:00:25;2.42;;;1.08;;
1987;SDS011;12775;46.994;15.498;2022-09-09T01:02:59;1.74;;;1.24;;
1987;SDS011;12775;46.994;15.498;2022-09-09T01:05:39;4.44;;;1.40;;
1987;SDS011;12775;46.994;15.498;2022-09-09T01:08:05;2.60;;;1.56;;
1987;SDS011;12775;46.994;15.498;2022-09-09T01:10:35;1.10;;;0.94;;
1987;SDS011;12775;46.994;15.498;2022-09-09T01:12:58;2.42;;;1.24;;
1987;SDS011;12775;46.994;15.498;2022-09-09T01:15:26;4.44;;;1.38;;
1987;SDS011;12775;46.994;15.498;2022-09-09T01:17:56;1.16;;;0.98;;
1987;SDS011;12775;46.994;15.498;2022-09-09T01:20:39;3.88;;;1.04;;
1987;SDS011;12775;46.994;15.498;2022-09-09T01:23:33;2.22;;;1.22;;
1987;SDS011;12775;46.994;15.498;2022-09-09T01:26:09;3.40;;;0.96;;
1987;SDS011;12775;46.994;15.498;2022-09-09T01:28:39;2.82;;;0.86;;
1987;SDS011;12775;46.994;15.498;2022-09-09T01:31:06;1.58;;;0.74;;
1987;SDS011;12775;46.994;15.498;2022-09-09T01:33:33;1.24;;;0.76;;
1987;SDS011;12775;46.994;15.498;2022-09-09T01:36:04;1.20;;;0.70;;
1987;SDS011;12775;46.994;15.498;2022-09-09T01:38:33;0.70;;;0.70;;
1987;SDS011;12775;46.994;15.498;2022-09-09T01:41:00;3.52;;;0.76;;
1987;SDS011;12775;46.994;15.498;2022-09-09T01:43:29;1.92;;;0.96;;
1987;SDS011;12775;46.994;15.498;2022-09-09T01:45:56;3.90;;;1.26;;
1987;SDS011;12775;46.994;15.498;2022-09-09T01:48:23;1.94;;;1.10;;
1987;SDS011;12775;46.994;15.498;2022-09-09T01:50:52;1.38;;;0.76;;
1987;SDS011;12775;46.994;15.498;2022-09-09T01:53:20;3.08;;;0.80;;
1987;SDS011;12775;46.994;15.498;2022-09-09T01:58:37;1.06;;;0.74;;
1987;SDS011;12775;46.994;15.498;2022-09-09T02:01:06;8.44;;;1.00;;
1987;SDS011;12775;46.994;15.498;2022-09-09T02:03:51;1.60;;;1.06;;
1987;SDS011;12775;46.994;15.498;2022-09-09T02:06:22;2.14;;;1.30;;
1987;SDS011;12775;46.994;15.498;2022-09-09T02:08:49;2.38;;;0.80;;
1987;SDS011;12775;46.994;15.498;2022-09-09T02:11:18;3.30;;;1.78;;
1987;SDS011;12775;46.994;15.498;2022-09-09T02:13:46;3.92;;;0.88;;
1987;SDS011;12775;46.994;15.498;2022-09-09T02:16:31;1.46;;;1.02;;
1987;SDS011;12775;46.994;15.498;2022-09-09T02:19:15;2.72;;;1.14;;
1987;SDS011;12775;46.994;15.498;2022-09-09T02:21:42;2.28;;;1.26;;
1987;SDS011;12775;46.994;15.498;2022-09-09T02:24:09;1.62;;;0.98;;
1987;SDS011;12775;46.994;15.498;2022-09-09T02:26:37;1.20;;;1.10;;
1987;SDS011;12775;46.994;15.498;2022-09-09T02:29:05;2.82;;;1.08;;
1987;SDS011;12775;46.994;15.498;2022-09-09T02:31:32;2.84;;;1.20;;
1987;SDS011;12775;46.994;15.498;2022-09-09T02:33:59;2.54;;;0.98;;
1987;SDS011;12775;46.994;15.498;2022-09-09T02:36:28;3.14;;;1.00;;
1987;SDS011;12775;46.994;15.498;2022-09-09T02:38:54;1.12;;;1.02;;
1987;SDS011;12775;46.994;15.498;2022-09-09T02:41:25;2.34;;;1.32;;
1987;SDS011;12775;46.994;15.498;2022-09-09T02:43:54;2.62;;;1.10;;
1987;SDS011;12775;46.994;15.498;2022-09-09T02:46:24;2.76;;;1.40;;
1987;SDS011;12775;46.994;15.498;2022-09-09T02:48:52;1.86;;;1.54;;
1987;SDS011;12775;46.994;15.498;2022-09-09T02:51:37;2.92;;;1.28;;
1987;SDS011;12775;46.994;15.498;2022-09-09T02:54:35;3.12;;;2.02;;
1987;SDS011;12775;46.994;15.498;2022-09-09T02:56:52;4.04;;;1.66;;
1987;SDS011;12775;46.994;15.498;2022-09-09T02:59:17;3.50;;;2.10;;
1987;SDS011;12775;46.994;15.498;2022-09-09T03:01:44;2.84;;;1.76;;
1987;SDS011;12775;46.994;15.498;2022-09-09T03:04:11;4.12;;;2.22;;
1987;SDS011;12775;46.994;15.498;2022-09-09T03:06:39;5.54;;;1.90;;
1987;SDS011;12775;46.994;15.498;2022-09-09T03:09:06;3.30;;;2.50;;
1987;SDS011;12775;46.994;15.498;2022-09-09T03:11:34;3.20;;;2.00;;
1987;SDS011;12775;46.994;15.498;2022-09-09T03:14:02;3.92;;;2.16;;
1987;SDS011;12775;46.994;15.498;2022-09-09T03:16:29;3.06;;;2.16;;
1987;SDS011;12775;46.994;15.498;2022-09-09T03:18:56;3.36;;;2.18;;
1987;SDS011;12775;46.994;15.498;2022-09-09T03:21:24;7.34;;;1.82;;
1987;SDS011;12775;46.994;15.498;2022-09-09T03:23:51;4.38;;;2.00;;
1987;SDS011;12775;46.994;15.498;2022-09-09T03:26:18;2.30;;;1.62;;
1987;SDS011;12775;46.994;15.498;2022-09-09T03:28:46;6.74;;;2.58;;
1987;SDS011;12775;46.994;15.498;2022-09-09T03:31:16;4.20;;;2.20;;
1987;SDS011;12775;46.994;15.498;2022-09-09T03:33:43;2.66;;;1.92;;
1987;SDS011;12775;46.994;15.498;2022-09-09T03:36:11;6.40;;;1.80;;
1987;SDS011;12775;46.994;15.498;2022-09-09T03:38:39;2.32;;;2.08;;
1987;SDS011;12775;46.994;15.498;2022-09-09T03:41:06;2.36;;;2.14;;
1987;SDS011;12775;46.994;15.498;2022-09-09T03:43:34;4.14;;;1.98;;
1987;SDS011;12775;46.994;15.498;2022-09-09T03:46:01;5.10;;;2.22;;
1987;SDS011;12775;46.994;15.498;2022-09-09T03:48:28;1.68;;;1.58;;
1987;SDS011;12775;46.994;15.498;2022-09-09T03:50:56;3.90;;;1.92;;
1987;SDS011;12775;46.994;15.498;2022-09-09T03:53:23;5.72;;;1.94;;
1987;SDS011;12775;46.994;15.498;2022-09-09T03:55:52;4.04;;;2.26;;
1987;SDS011;12775;46.994;15.498;2022-09-09T03:58:21;4.88;;;1.62;;
1987;SDS011;12775;46.994;15.498;2022-09-09T04:00:54;2.72;;;2.50;;
1987;SDS011;12775;46.994;15.498;2022-09-09T04:03:21;6.36;;;2.30;;
1987;SDS011;12775;46.994;15.498;2022-09-09T04:05:49;4.68;;;1.74;;
1987;SDS011;12775;46.994;15.498;2022-09-09T04:08:16;4.50;;;1.74;;
1987;SDS011;12775;46.994;15.498;2022-09-09T04:10:44;2.26;;;1.52;;
1987;SDS011;12775;46.994;15.498;2022-09-09T04:13:11;2.94;;;1.66;;
1987;SDS011;12775;46.994;15.498;2022-09-09T04:15:38;4.70;;;1.54;;
1987;SDS011;12775;46.994;15.498;2022-09-09T04:18:05;1.82;;;1.30;;
1987;SDS011;12775;46.994;15.498;2022-09-09T04:20:33;1.94;;;1.34;;
1987;SDS011;12775;46.994;15.498;2022-09-09T04:23:00;3.10;;;1.62;;
1987;SDS011;12775;46.994;15.498;2022-09-09T04:25:27;6.28;;;2.22;;
1987;SDS011;12775;46.994;15.498;2022-09-09T04:27:56;3.26;;;1.30;;
1987;SDS011;12775;46.994;15.498;2022-09-09T04:30:24;1.96;;;1.58;;
1987;SDS011;12775;46.994;15.498;2022-09-09T04:32:50;5.20;;;2.40;;
1987;SDS011;12775;46.994;15.498;2022-09-09T04:35:18;3.00;;;2.48;;
1987;SDS011;12775;46.994;15.498;2022-09-09T04:37:46;5.38;;;2.50;;
1987;SDS011;12775;46.994;15.498;2022-09-09T04:40:14;10.00;;;3.04;;
1987;SDS011;12775;46.994;15.498;2022-09-09T04:42:43;7.22;;;2.80;;
1987;SDS011;12775;46.994;15.498;2022-09-09T04:45:11;7.52;;;2.86;;
1987;SDS011;12775;46.994;15.498;2022-09-09T04:47:38;7.80;;;2.78;;
1987;SDS011;12775;46.994;15.498;2022-09-09T04:50:05;8.60;;;1.90;;
1987;SDS011;12775;46.994;15.498;2022-09-09T04:52:34;6.64;;;2.62;;
1987;SDS011;12775;46.994;15.498;2022-09-09T04:55:01;4.48;;;2.22;;
1987;SDS011;12775;46.994;15.498;2022-09-09T04:57:28;2.40;;;1.88;;
1987;SDS011;12775;46.994;15.498;2022-09-09T04:59:57;3.56;;;2.14;;
1987;SDS011;12775;46.994;15.498;2022-09-09T05:02:24;3.72;;;2.70;;
1987;SDS011;12775;46.994;15.498;2022-09-09T05:04:51;4.62;;;2.08;;
1987;SDS011;12775;46.994;15.498;2022-09-09T05:07:19;2.26;;;1.90;;
1987;SDS011;12775;46.994;15.498;2022-09-09T05:09:46;5.66;;;1.92;;
1987;SDS011;12775;46.994;15.498;2022-09-09T05:12:14;5.86;;;2.20;;
1987;SDS011;12775;46.994;15.498;2022-09-09T05:14:42;7.52;;;1.80;;
1987;SDS011;12775;46.994;15.498;2022-09-09T05:17:10;3.66;;;2.38;;
1987;SDS011;12775;46.994;15.498;2022-09-09T05:19:37;2.70;;;1.48;;
1987;SDS011;12775;46.994;15.498;2022-09-09T05:22:04;2.72;;;2.04;;
1987;SDS011;12775;46.994;15.498;2022-09-09T05:24:32;6.70;;;2.42;;
1987;SDS011;12775;46.994;15.498;2022-09-09T05:26:59;4.40;;;2.40;;
1987;SDS011;12775;46.994;15.498;2022-09-09T05:29:26;7.94;;;2.46;;
1987;SDS011;12775;46.994;15.498;2022-09-09T05:31:54;4.72;;;2.84;;
1987;SDS011;12775;46.994;15.498;2022-09-09T05:34:21;5.40;;;2.40;;
1987;SDS011;12775;46.994;15.498;2022-09-09T05:36:48;4.34;;;2.02;;
1987;SDS011;12775;46.994;15.498;2022-09-09T05:39:16;2.60;;;2.32;;
1987;SDS011;12775;46.994;15.498;2022-09-09T05:41:43;3.90;;;2.70;;
1987;SDS011;12775;46.994;15.498;2022-09-09T05:44:11;2.48;;;2.28;;
1987;SDS011;12775;46.994;15.498;2022-09-09T05:46:38;2.72;;;2.38;;
1987;SDS011;12775;46.994;15.498;2022-09-09T05:49:06;4.86;;;3.30;;
1987;SDS011;12775;46.994;15.498;2022-09-09T05:51:33;3.24;;;2.60;;
1987;SDS011;12775;46.994;15.498;2022-09-09T05:54:00;2.76;;;2.08;;
1987;SDS011;12775;46.994;15.498;2022-09-09T05:56:30;2.14;;;1.90;;
1987;SDS011;12775;46.994;15.498;2022-09-09T05:58:58;3.86;;;2.10;;
1987;SDS011;12775;46.994;15.498;2022-09-09T06:01:25;2.72;;;1.74;;
1987;SDS011;12775;46.994;15.498;2022-09-09T06:03:52;5.40;;;3.00;;
1987;SDS011;12775;46.994;15.498;2022-09-09T06:06:20;3.46;;;1.90;;
1987;SDS011;12775;46.994;15.498;2022-09-09T06:08:47;7.06;;;2.34;;
1987;SDS011;12775;46.994;15.498;2022-09-09T06:11:15;3.38;;;2.32;;
1987;SDS011;12775;46.994;15.498;2022-09-09T06:13:42;9.62;;;3.64;;
1987;SDS011;12775;46.994;15.498;2022-09-09T06:16:10;6.68;;;3.30;;
1987;SDS011;12775;46.994;15.498;2022-09-09T06:18:37;7.20;;;2.38;;
1987;SDS011;12775;46.994;15.498;2022-09-09T06:21:05;3.50;;;2.80;;
1987;SDS011;12775;46.994;15.498;2022-09-09T06:23:33;2.42;;;2.22;;
1987;SDS011;12775;46.994;15.498;2022-09-09T06:26:02;3.04;;;2.78;;
1987;SDS011;12775;46.994;15.498;2022-09-09T06:28:28;8.12;;;2.80;;
1987;SDS011;12775;46.994;15.498;2022-09-09T06:30:58;3.74;;;2.90;;
1987;SDS011;12775;46.994;15.498;2022-09-09T06:33:25;5.88;;;4.00;;
1987;SDS011;12775;46.994;15.498;2022-09-09T06:35:52;2.96;;;2.76;;
1987;SDS011;12775;46.994;15.498;2022-09-09T06:38:20;3.22;;;2.92;;
1987;SDS011;12775;46.994;15.498;2022-09-09T06:40:51;3.98;;;3.58;;
1987;SDS011;12775;46.994;15.498;2022-09-09T06:43:18;5.12;;;4.38;;
1987;SDS011;12775;46.994;15.498;2022-09-09T06:45:52;4.98;;;3.32;;
1987;SDS011;12775;46.994;15.498;2022-09-09T06:48:35;4.44;;;3.18;;
1987;SDS011;12775;46.994;15.498;2022-09-09T06:51:04;3.60;;;3.24;;
1987;SDS011;12775;46.994;15.498;2022-09-09T06:53:33;6.90;;;3.34;;
1987;SDS011;12775;46.994;15.498;2022-09-09T06:56:00;4.26;;;3.54;;
1987;SDS011;12775;46.994;15.498;2022-09-09T06:58:26;4.38;;;3.10;;
1987;SDS011;12775;46.994;15.498;2022-09-09T07:00:52;3.66;;;3.18;;
1987;SDS011;12775;46.994;15.498;2022-09-09T07:03:19;4.20;;;3.80;;
1987;SDS011;12775;46.994;15.498;2022-09-09T07:05:53;4.20;;;2.88;;
1987;SDS011;12775;46.994;15.498;2022-09-09T07:08:20;5.08;;;3.40;;
1987;SDS011;12775;46.994;15.498;2022-09-09T07:10:47;5.96;;;3.56;;
1987;SDS011;12775;46.994;15.498;2022-09-09T07:13:15;9.36;;;3.70;;
1987;SDS011;12775;46.994;15.498;2022-09-09T07:15:42;7.04;;;3.64;;
1987;SDS011;12775;46.994;15.498;2022-09-09T07:18:10;4.54;;;3.16;;
1987;SDS011;12775;46.994;15.498;2022-09-09T07:20:38;3.66;;;3.32;;
1987;SDS011;12775;46.994;15.498;2022-09-09T07:23:05;3.70;;;3.40;;
1987;SDS011;12775;46.994;15.498;2022-09-09T07:25:32;3.78;;;3.12;;
1987;SDS011;12775;46.994;15.498;2022-09-09T07:28:01;3.52;;;2.92;;
1987;SDS011;12775;46.994;15.498;2022-09-09T07:30:28;3.92;;;2.94;;
1987;SDS011;12775;46.994;15.498;2022-09-09T07:32:56;3.66;;;3.36;;
1987;SDS011;12775;46.994;15.498;2022-09-09T07:35:23;3.16;;;2.80;;
1987;SDS011;12775;46.994;15.498;2022-09-09T07:37:51;3.08;;;2.78;;
1987;SDS011;12775;46.994;15.498;2022-09-09T07:40:18;5.84;;;3.76;;
1987;SDS011;12775;46.994;15.498;2022-09-09T07:42:45;5.28;;;4.00;;
1987;SDS011;12775;46.994;15.498;2022-09-09T07:45:13;4.72;;;3.58;;
1987;SDS011;12775;46.994;15.498;2022-09-09T07:47:40;5.22;;;3.66;;
1987;SDS011;12775;46.994;15.498;2022-09-09T07:50:09;7.08;;;4.22;;
1987;SDS011;12775;46.994;15.498;2022-09-09T07:52:36;8.00;;;3.58;;
1987;SDS011;12775;46.994;15.498;2022-09-09T07:55:04;3.74;;;2.84;;
1987;SDS011;12775;46.994;15.498;2022-09-09T07:57:31;4.40;;;3.30;;
1987;SDS011;12775;46.994;15.498;2022-09-09T07:59:59;3.64;;;2.94;;
1987;SDS011;12775;46.994;15.498;2022-09-09T08:02:26;4.08;;;3.58;;
1987;SDS011;12775;46.994;15.498;2022-09-09T08:04:54;4.08;;;3.28;;
1987;SDS011;12775;46.994;15.498;2022-09-09T08:07:21;3.92;;;2.68;;
1987;SDS011;12775;46.994;15.498;2022-09-09T08:09:49;7.88;;;3.76;;
1987;SDS011;12775;46.994;15.498;2022-09-09T08:12:17;3.60;;;3.30;;
1987;SDS011;12775;46.994;15.498;2022-09-09T08:14:44;5.26;;;2.96;;
1987;SDS011;12775;46.994;15.498;2022-09-09T08:17:11;3.34;;;2.76;;
1987;SDS011;12775;46.994;15.498;2022-09-09T08:19:39;3.56;;;3.14;;
1987;SDS011;12775;46.994;15.498;2022-09-09T08:22:06;3.42;;;3.12;;
1987;SDS011;12775;46.994;15.498;2022-09-09T08:24:33;3.00;;;2.70;;
1987;SDS011;12775;46.994;15.498;2022-09-09T08:27:01;4.52;;;2.88;;
1987;SDS011;12775;46.994;15.498;2022-09-09T08:29:28;4.18;;;2.74;;
1987;SDS011;12775;46.994;15.498;2022-09-09T08:31:57;4.08;;;3.36;;
1987;SDS011;12775;46.994;15.498;2022-09-09T08:34:23;4.40;;;3.04;;
1987;SDS011;12775;46.994;15.498;2022-09-09T08:36:50;4.02;;;3.48;;
1987;SDS011;12775;46.994;15.498;2022-09-09T08:39:18;4.14;;;2.82;;
1987;SDS011;12775;46.994;15.498;2022-09-09T08:41:52;3.42;;;3.22;;
1987;SDS011;12775;46.994;15.498;2022-09-09T08:44:24;2.80;;;2.48;;
1987;SDS011;12775;46.994;15.498;2022-09-09T08:47:06;4.86;;;2.38;;
1987;SDS011;12775;46.994;15.498;2022-09-09T08:49:43;10.12;;;3.16;;
1987;SDS011;12775;46.994;15.498;2022-09-09T08:52:10;2.54;;;2.34;;
1987;SDS011;12775;46.994;15.498;2022-09-09T08:54:35;2.64;;;2.44;;
1987;SDS011;12775;46.994;15.498;2022-09-09T08:57:03;5.06;;;3.58;;
1987;SDS011;12775;46.994;15.498;2022-09-09T08:59:30;4.90;;;3.40;;
1987;SDS011;12775;46.994;15.498;2022-09-09T09:02:02;4.88;;;3.38;;
1987;SDS011;12775;46.994;15.498;2022-09-09T09:04:46;3.54;;;2.80;;
1987;SDS011;12775;46.994;15.498;2022-09-09T09:12:56;3.26;;;2.96;;
1987;SDS011;12775;46.994;15.498;2022-09-09T09:15:23;3.04;;;2.74;;
1987;SDS011;12775;46.994;15.498;2022-09-09T09:17:50;2.92;;;2.62;;
1987;SDS011;12775;46.994;15.498;2022-09-09T09:20:18;4.54;;;4.14;;
1987;SDS011;12775;46.994;15.498;2022-09-09T09:22:48;3.58;;;3.28;;
1987;SDS011;12775;46.994;15.498;2022-09-09T09:25:20;6.12;;;3.12;;
1987;SDS011;12775;46.994;15.498;2022-09-09T09:27:59;1.84;;;1.74;;
1987;SDS011;12775;46.994;15.498;2022-09-09T09:30:31;2.42;;;2.26;;
1987;SDS011;12775;46.994;15.498;2022-09-09T09:32:59;2.98;;;2.30;;
1987;SDS011;12775;46.994;15.498;2022-09-09T09:35:26;3.34;;;2.12;;
1987;SDS011;12775;46.994;15.498;2022-09-09T09:37:53;4.40;;;2.12;;
1987;SDS011;12775;46.994;15.498;2022-09-09T09:40:21;5.54;;;2.38;;
1987;SDS011;12775;46.994;15.498;2022-09-09T09:42:52;8.16;;;2.90;;
1987;SDS011;12775;46.994;15.498;2022-09-09T09:45:23;2.44;;;1.98;;
1987;SDS011;12775;46.994;15.498;2022-09-09T09:47:57;2.52;;;2.30;;
1987;SDS011;12775;46.994;15.498;2022-09-09T09:50:16;1.78;;;1.68;;
1987;SDS011;12775;46.994;15.498;2022-09-09T09:52:52;2.78;;;2.58;;
1987;SDS011;12775;46.994;15.498;2022-09-09T09:55:12;10.42;;;2.44;;
1987;SDS011;12775;46.994;15.498;2022-09-09T09:57:38;4.56;;;2.20;;
1987;SDS011;12775;46.994;15.498;2022-09-09T10:02:41;2.56;;;2.00;;
1987;SDS011;12775;46.994;15.498;2022-09-09T10:05:14;2.74;;;2.20;;
1987;SDS011;12775;46.994;15.498;2022-09-09T10:07:42;5.24;;;2.20;;
1987;SDS011;12775;46.994;15.498;2022-09-09T10:10:11;3.04;;;2.44;;
1987;SDS011;12775;46.994;15.498;2022-09-09T10:12:41;3.26;;;2.40;;
1987;SDS011;12775;46.994;15.498;2022-09-09T10:15:56;3.58;;;2.36;;
1987;SDS011;12775;46.994;15.498;2022-09-09T10:18:39;3.72;;;2.56;;
1987;SDS011;12775;46.994;15.498;2022-09-09T10:21:10;3.58;;;2.90;;
1987;SDS011;12775;46.994;15.498;2022-09-09T10:26:42;2.58;;;1.82;;
1987;SDS011;12775;46.994;15.498;2022-09-09T10:32:37;2.26;;;2.06;;
1987;SDS011;12775;46.994;15.498;2022-09-09T10:35:17;4.34;;;2.58;;
1987;SDS011;12775;46.994;15.498;2022-09-09T10:38:15;2.20;;;2.00;;
1987;SDS011;12775;46.994;15.498;2022-09-09T10:40:43;5.00;;;2.02;;
1987;SDS011;12775;46.994;15.498;2022-09-09T10:43:35;4.74;;;1.90;;
1987;SDS011;12775;46.994;15.498;2022-09-09T10:49:08;2.90;;;2.10;;
1987;SDS011;12775;46.994;15.498;2022-09-09T10:51:40;2.52;;;1.70;;
1987;SDS011;12775;46.994;15.498;2022-09-09T10:54:23;3.88;;;1.94;;
1987;SDS011;12775;46.994;15.498;2022-09-09T10:56:52;4.78;;;2.38;;
1987;SDS011;12775;46.994;15.498;2022-09-09T10:59:20;1.42;;;1.32;;
1987;SDS011;12775;46.994;15.498;2022-09-09T11:02:30;4.94;;;1.74;;
1987;SDS011;12775;46.994;15.498;2022-09-09T11:04:34;4.82;;;1.60;;
1987;SDS011;12775;46.994;15.498;2022-09-09T11:07:00;1.62;;;1.52;;
1987;SDS011;12775;46.994;15.498;2022-09-09T11:09:28;2.46;;;1.62;;
1987;SDS011;12775;46.994;15.498;2022-09-09T11:11:55;2.24;;;1.66;;
1987;SDS011;12775;46.994;15.498;2022-09-09T11:14:28;5.12;;;1.92;;
1987;SDS011;12775;46.994;15.498;2022-09-09T11:17:01;2.26;;;1.96;;
1987;SDS011;12775;46.994;15.498;2022-09-09T11:19:33;2.38;;;2.18;;
1987;SDS011;12775;46.994;15.498;2022-09-09T11:22:01;3.16;;;2.20;;
1987;SDS011;12775;46.994;15.498;2022-09-09T11:24:33;2.54;;;1.80;;
1987;SDS011;12775;46.994;15.498;2022-09-09T11:27:03;3.86;;;2.26;;
1987;SDS011;12775;46.994;15.498;2022-09-09T11:29:52;4.00;;;2.28;;
1987;SDS011;12775;46.994;15.498;2022-09-09T11:32:34;3.02;;;1.98;;
1987;SDS011;12775;46.994;15.498;2022-09-09T11:40:55;1.98;;;1.50;;
1987;SDS011;12775;46.994;15.498;2022-09-09T11:43:23;2.90;;;1.68;;
1987;SDS011;12775;46.994;15.498;2022-09-09T11:45:52;3.88;;;1.82;;
1987;SDS011;12775;46.994;15.498;2022-09-09T11:48:27;2.18;;;1.68;;
1987;SDS011;12775;46.994;15.498;2022-09-09T11:51:00;2.40;;;2.00;;
1987;SDS011;12775;46.994;15.498;2022-09-09T11:53:28;2.08;;;1.52;;
1987;SDS011;12775;46.994;15.498;2022-09-09T11:56:00;4.90;;;2.98;;
1987;SDS011;12775;46.994;15.498;2022-09-09T11:58:27;1.50;;;1.40;;
1987;SDS011;12775;46.994;15.498;2022-09-09T12:00:55;2.44;;;1.58;;
1987;SDS011;12775;46.994;15.498;2022-09-09T12:06:13;2.80;;;1.70;;
1987;SDS011;12775;46.994;15.498;2022-09-09T12:08:46;3.40;;;1.80;;
1987;SDS011;12775;46.994;15.498;2022-09-09T12:11:12;2.82;;;2.62;;
1987;SDS011;12775;46.994;15.498;2022-09-09T12:13:39;3.00;;;1.84;;
1987;SDS011;12775;46.994;15.498;2022-09-09T12:16:26;3.48;;;2.38;;
1987;SDS011;12775;46.994;15.498;2022-09-09T12:18:35;3.34;;;1.70;;
1987;SDS011;12775;46.994;15.498;2022-09-09T12:29:08;3.48;;;2.04;;
1987;SDS011;12775;46.994;15.498;2022-09-09T12:31:42;2.42;;;1.62;;
1987;SDS011;12775;46.994;15.498;2022-09-09T12:34:24;4.86;;;1.98;;
1987;SDS011;12775;46.994;15.498;2022-09-09T12:36:49;1.86;;;1.54;;
1987;SDS011;12775;46.994;15.498;2022-09-09T12:39:17;1.34;;;1.24;;
1987;SDS011;12775;46.994;15.498;2022-09-09T12:41:52;5.02;;;1.82;;
1987;SDS011;12775;46.994;15.498;2022-09-09T12:44:19;3.56;;;1.48;;
1987;SDS011;12775;46.994;15.498;2022-09-09T12:46:46;6.34;;;1.90;;
1987;SDS011;12775;46.994;15.498;2022-09-09T12:52:04;1.94;;;1.84;;
1987;SDS011;12775;46.994;15.498;2022-09-09T12:54:33;2.16;;;1.96;;
1987;SDS011;12775;46.994;15.498;2022-09-09T12:57:00;4.22;;;1.66;;
1987;SDS011;12775;46.994;15.498;2022-09-09T12:59:35;1.52;;;1.42;;
1987;SDS011;12775;46.994;15.498;2022-09-09T13:02:01;4.48;;;1.66;;
1987;SDS011;12775;46.994;15.498;2022-09-09T13:04:29;4.86;;;2.20;;
1987;SDS011;12775;46.994;15.498;2022-09-09T13:07:05;2.56;;;1.66;;
1987;SDS011;12775;46.994;15.498;2022-09-09T13:09:38;1.98;;;1.88;;
1987;SDS011;12775;46.994;15.498;2022-09-09T13:12:06;2.78;;;1.32;;
1987;SDS011;12775;46.994;15.498;2022-09-09T13:14:34;4.02;;;1.66;;
1987;SDS011;12775;46.994;15.498;2022-09-09T13:17:02;2.92;;;1.50;;
1987;SDS011;12775;46.994;15.498;2022-09-09T13:19:31;1.94;;;1.74;;
1987;SDS011;12775;46.994;15.498;2022-09-09T13:21:57;4.52;;;1.86;;
1987;SDS011;12775;46.994;15.498;2022-09-09T13:24:29;2.18;;;1.88;;
1987;SDS011;12775;46.994;15.498;2022-09-09T13:26:55;1.90;;;1.60;;
1987;SDS011;12775;46.994;15.498;2022-09-09T13:29:22;1.70;;;1.60;;
1987;SDS011;12775;46.994;15.498;2022-09-09T13:31:49;1.86;;;1.72;;
1987;SDS011;12775;46.994;15.498;2022-09-09T13:36:57;2.00;;;1.80;;
1987;SDS011;12775;46.994;15.498;2022-09-09T13:39:22;1.68;;;1.58;;
1987;SDS011;12775;46.994;15.498;2022-09-09T13:41:50;2.80;;;2.40;;
1987;SDS011;12775;46.994;15.498;2022-09-09T13:44:19;2.00;;;1.80;;
1987;SDS011;12775;46.994;15.498;2022-09-09T13:46:47;2.50;;;2.10;;
1987;SDS011;12775;46.994;15.498;2022-09-09T13:49:19;2.28;;;2.08;;
1987;SDS011;12775;46.994;15.498;2022-09-09T13:51:46;2.58;;;1.92;;
1987;SDS011;12775;46.994;15.498;2022-09-09T13:54:14;3.44;;;2.36;;
1987;SDS011;12775;46.994;15.498;2022-09-09T13:56:41;2.14;;;1.94;;
1987;SDS011;12775;46.994;15.498;2022-09-09T13:59:10;1.86;;;1.42;;
1987;SDS011;12775;46.994;15.498;2022-09-09T14:01:36;2.34;;;2.14;;
1987;SDS011;12775;46.994;15.498;2022-09-09T14:04:03;2.04;;;1.94;;
1987;SDS011;12775;46.994;15.498;2022-09-09T14:06:32;2.04;;;1.86;;
1987;SDS011;12775;46.994;15.498;2022-09-09T14:08:59;3.18;;;1.52;;
1987;SDS011;12775;46.994;15.498;2022-09-09T14:11:26;2.30;;;2.10;;
1987;SDS011;12775;46.994;15.498;2022-09-09T14:13:54;2.10;;;1.76;;
1987;SDS011;12775;46.994;15.498;2022-09-09T14:16:21;2.32;;;2.10;;
1987;SDS011;12775;46.994;15.498;2022-09-09T14:18:47;3.46;;;2.66;;
1987;SDS011;12775;46.994;15.498;2022-09-09T14:21:15;5.84;;;2.50;;
1987;SDS011;12775;46.994;15.498;2022-09-09T14:23:42;2.12;;;1.86;;
1987;SDS011;12775;46.994;15.498;2022-09-09T14:26:10;6.82;;;2.52;;
1987;SDS011;12775;46.994;15.498;2022-09-09T14:28:37;6.86;;;2.76;;
1987;SDS011;12775;46.994;15.498;2022-09-09T14:31:04;2.78;;;2.50;;
1987;SDS011;12775;46.994;15.498;2022-09-09T14:33:32;4.08;;;2.30;;
1987;SDS011;12775;46.994;15.498;2022-09-09T14:36:00;2.24;;;1.96;;
1987;SDS011;12775;46.994;15.498;2022-09-09T14:38:29;2.30;;;1.16;;
1987;SDS011;12775;46.994;15.498;2022-09-09T14:40:56;1.94;;;1.76;;
1987;SDS011;12775;46.994;15.498;2022-09-09T14:43:23;2.02;;;1.82;;
1987;SDS011;12775;46.994;15.498;2022-09-09T14:45:51;3.42;;;1.80;;
1987;SDS011;12775;46.994;15.498;2022-09-09T14:48:18;3.52;;;1.72;;
1987;SDS011;12775;46.994;15.498;2022-09-09T14:50:45;1.50;;;1.40;;
1987;SDS011;12775;46.994;15.498;2022-09-09T14:53:13;2.80;;;1.52;;
1987;SDS011;12775;46.994;15.498;2022-09-09T14:55:40;2.60;;;2.02;;
1987;SDS011;12775;46.994;15.498;2022-09-09T14:58:08;7.02;;;2.08;;
1987;SDS011;12775;46.994;15.498;2022-09-09T15:00:35;1.60;;;1.44;;
1987;SDS011;12775;46.994;15.498;2022-09-09T15:03:02;1.70;;;1.60;;
1987;SDS011;12775;46.994;15.498;2022-09-09T15:05:30;2.32;;;2.12;;
1987;SDS011;12775;46.994;15.498;2022-09-09T15:07:57;2.64;;;1.98;;
1987;SDS011;12775;46.994;15.498;2022-09-09T15:10:24;2.74;;;2.18;;
1987;SDS011;12775;46.994;15.498;2022-09-09T15:12:52;1.98;;;1.88;;
1987;SDS011;12775;46.994;15.498;2022-09-09T15:15:19;1.80;;;1.70;;
1987;SDS011;12775;46.994;15.498;2022-09-09T15:17:46;3.30;;;2.28;;
1987;SDS011;12775;46.994;15.498;2022-09-09T15:20:14;2.34;;;2.12;;
1987;SDS011;12775;46.994;15.498;2022-09-09T15:22:41;2.24;;;2.04;;
1987;SDS011;12775;46.994;15.498;2022-09-09T15:25:09;6.16;;;2.00;;
1987;SDS011;12775;46.994;15.498;2022-09-09T15:27:36;2.44;;;2.22;;
1987;SDS011;12775;46.994;15.498;2022-09-09T15:30:03;2.40;;;2.20;;
1987;SDS011;12775;46.994;15.498;2022-09-09T15:32:32;2.14;;;1.98;;
1987;SDS011;12775;46.994;15.498;2022-09-09T15:34:59;5.66;;;2.38;;
1987;SDS011;12775;46.994;15.498;2022-09-09T15:37:28;5.98;;;2.08;;
1987;SDS011;12775;46.994;15.498;2022-09-09T15:39:55;5.18;;;2.38;;
1987;SDS011;12775;46.994;15.498;2022-09-09T15:42:22;2.32;;;1.76;;
1987;SDS011;12775;46.994;15.498;2022-09-09T15:44:50;2.32;;;2.12;;
1987;SDS011;12775;46.994;15.498;2022-09-09T15:47:17;2.42;;;2.22;;